sensor_id;sensor_type;location;lat;lon;timestamp;pressure;altitude;pressure_sealevel;temperature;humidity
58072;BME280;60383;46.626;18.866;2023-01-28T00:01:37;100501.97;;;0.89;94.94
58072;BME280;60383;46.626;18.866;2023-01-28T00:04:03;100500.28;;;0.86;94.81
58072;BME280;60383;46.626;18.866;2023-01-28T00:06:29;100508.97;;;0.77;94.53
58072;BME280;60383;46.626;18.866;2023-01-28T00:08:54;100506.22;;;0.62;95.93
58072;BME280;60383;46.626;18.866;2023-01-28T00:11:20;100508.91;;;0.62;96.12
58072;BME280;60383;46.626;18.866;2023-01-28T00:13:52;100508.69;;;0.51;96.99
58072;BME280;60383;46.626;18.866;2023-01-28T00:16:18;100504.94;;;0.54;96.42
58072;BME280;60383;46.626;18.866;2023-01-28T00:18:45;100508.53;;;0.69;96.12
58072;BME280;60383;46.626;18.866;2023-01-28T00:21:12;100504.75;;;0.57;96.12
58072;BME280;60383;46.626;18.866;2023-01-28T00:23:39;100513.41;;;0.47;97.13
58072;BME280;60383;46.626;18.866;2023-01-28T00:26:13;100500.19;;;0.73;96.76
58072;BME280;60383;46.626;18.866;2023-01-28T00:28:40;100507.91;;;0.49;96.44
58072;BME280;60383;46.626;18.866;2023-01-28T00:31:17;100508.69;;;0.51;96.50
58072;BME280;60383;46.626;18.866;2023-01-28T00:33:44;100509.66;;;0.81;94.95
58072;BME280;60383;46.626;18.866;2023-01-28T00:36:10;100510.78;;;0.76;95.63
58072;BME280;60383;46.626;18.866;2023-01-28T00:38:36;100515.56;;;0.71;95.93
58072;BME280;60383;46.626;18.866;2023-01-28T00:41:13;100514.34;;;0.77;95.76
58072;BME280;60383;46.626;18.866;2023-01-28T00:43:40;100519.31;;;0.99;94.14
58072;BME280;60383;46.626;18.866;2023-01-28T00:46:07;100515.31;;;0.76;94.77
58072;BME280;60383;46.626;18.866;2023-01-28T00:48:33;100527.59;;;0.66;95.29
58072;BME280;60383;46.626;18.866;2023-01-28T00:50:59;100522.81;;;0.71;95.54
58072;BME280;60383;46.626;18.866;2023-01-28T00:53:24;100524.75;;;0.83;95.42
58072;BME280;60383;46.626;18.866;2023-01-28T00:55:50;100514.47;;;0.90;93.98
58072;BME280;60383;46.626;18.866;2023-01-28T00:58:15;100520.16;;;0.85;94.44
58072;BME280;60383;46.626;18.866;2023-01-28T01:00:41;100522.97;;;0.68;95.48
58072;BME280;60383;46.626;18.866;2023-01-28T01:03:06;100510.41;;;0.83;94.98
58072;BME280;60383;46.626;18.866;2023-01-28T01:05:32;100506.09;;;0.94;94.82
58072;BME280;60383;46.626;18.866;2023-01-28T01:07:58;100504.16;;;0.82;94.46
58072;BME280;60383;46.626;18.866;2023-01-28T01:10:24;100507.69;;;0.83;94.09
58072;BME280;60383;46.626;18.866;2023-01-28T01:12:49;100510.09;;;0.73;94.46
58072;BME280;60383;46.626;18.866;2023-01-28T01:15:16;100513.72;;;0.57;94.66
58072;BME280;60383;46.626;18.866;2023-01-28T01:17:43;100520.97;;;0.71;94.50
58072;BME280;60383;46.626;18.866;2023-01-28T01:20:18;100527.88;;;0.61;94.99
58072;BME280;60383;46.626;18.866;2023-01-28T01:22:44;100528.53;;;0.50;95.06
58072;BME280;60383;46.626;18.866;2023-01-28T01:25:12;100532.53;;;0.73;94.17
58072;BME280;60383;46.626;18.866;2023-01-28T01:27:38;100535.94;;;0.77;95.07
58072;BME280;60383;46.626;18.866;2023-01-28T01:30:04;100532.66;;;0.56;95.15
58072;BME280;60383;46.626;18.866;2023-01-28T01:32:31;100533.94;;;0.34;95.81
58072;BME280;60383;46.626;18.866;2023-01-28T01:34:57;100539.72;;;0.42;96.31
58072;BME280;60383;46.626;18.866;2023-01-28T01:37:23;100541.94;;;0.36;96.36
58072;BME280;60383;46.626;18.866;2023-01-28T01:39:48;100544.50;;;0.53;96.02
58072;BME280;60383;46.626;18.866;2023-01-28T01:42:14;100546.69;;;0.46;96.35
58072;BME280;60383;46.626;18.866;2023-01-28T01:45:06;100543.22;;;0.44;95.75
58072;BME280;60383;46.626;18.866;2023-01-28T01:50:33;100548.81;;;0.56;94.37
58072;BME280;60383;46.626;18.866;2023-01-28T01:53:05;100545.91;;;0.44;95.54
58072;BME280;60383;46.626;18.866;2023-01-28T01:55:34;100542.38;;;0.74;93.94
58072;BME280;60383;46.626;18.866;2023-01-28T01:58:04;100546.34;;;0.53;94.50
58072;BME280;60383;46.626;18.866;2023-01-28T02:00:31;100545.66;;;0.49;95.29
58072;BME280;60383;46.626;18.866;2023-01-28T02:02:56;100539.72;;;0.42;95.25
58072;BME280;60383;46.626;18.866;2023-01-28T02:05:24;100536.97;;;0.74;94.25
58072;BME280;60383;46.626;18.866;2023-01-28T02:07:52;100539.47;;;0.47;94.57
58072;BME280;60383;46.626;18.866;2023-01-28T02:10:49;100539.50;;;0.31;96.07
58072;BME280;60383;46.626;18.866;2023-01-28T02:13:18;100538.19;;;0.38;96.74
58072;BME280;60383;46.626;18.866;2023-01-28T02:15:45;100535.13;;;0.44;95.67
58072;BME280;60383;46.626;18.866;2023-01-28T02:18:10;100534.13;;;0.15;96.92
58072;BME280;60383;46.626;18.866;2023-01-28T02:23:31;100534.72;;;0.20;96.91
58072;BME280;60383;46.626;18.866;2023-01-28T02:31:40;100533.28;;;0.45;95.26
58072;BME280;60383;46.626;18.866;2023-01-28T02:34:18;100533.97;;;0.48;95.44
58072;BME280;60383;46.626;18.866;2023-01-28T02:39:22;100533.28;;;0.45;95.31
58072;BME280;60383;46.626;18.866;2023-01-28T02:41:56;100536.53;;;0.36;95.68
58072;BME280;60383;46.626;18.866;2023-01-28T02:44:22;100536.97;;;0.44;95.29
58072;BME280;60383;46.626;18.866;2023-01-28T02:46:51;100529.16;;;0.39;94.82
58072;BME280;60383;46.626;18.866;2023-01-28T02:49:43;100530.75;;;0.58;94.86
58072;BME280;60383;46.626;18.866;2023-01-28T02:55:29;100538.53;;;0.32;95.11
58072;BME280;60383;46.626;18.866;2023-01-28T03:00:31;100538.97;;;0.24;96.23
58072;BME280;60383;46.626;18.866;2023-01-28T03:06:06;100540.63;;;0.27;95.98
58072;BME280;60383;46.626;18.866;2023-01-28T03:08:54;100545.41;;;0.38;94.79
58072;BME280;60383;46.626;18.866;2023-01-28T03:11:48;100544.44;;;0.39;95.61
58072;BME280;60383;46.626;18.866;2023-01-28T03:14:34;100541.66;;;0.40;95.01
58072;BME280;60383;46.626;18.866;2023-01-28T03:20:10;100545.66;;;0.33;94.87
58072;BME280;60383;46.626;18.866;2023-01-28T03:22:57;100536.63;;;0.34;94.51
58072;BME280;60383;46.626;18.866;2023-01-28T03:25:45;100544.34;;;0.24;95.81
58072;BME280;60383;46.626;18.866;2023-01-28T03:28:32;100547.56;;;0.31;96.30
58072;BME280;60383;46.626;18.866;2023-01-28T03:31:20;100555.91;;;0.42;95.37
58072;BME280;60383;46.626;18.866;2023-01-28T03:34:07;100552.34;;;0.42;95.12
58072;BME280;60383;46.626;18.866;2023-01-28T03:36:52;100551.41;;;0.43;94.80
58072;BME280;60383;46.626;18.866;2023-01-28T03:39:22;100556.59;;;0.30;95.30
58072;BME280;60383;46.626;18.866;2023-01-28T03:44:30;100563.81;;;0.45;95.42
58072;BME280;60383;46.626;18.866;2023-01-28T03:47:17;100562.59;;;0.35;95.46
58072;BME280;60383;46.626;18.866;2023-01-28T03:49:44;100560.19;;;0.30;95.88
58072;BME280;60383;46.626;18.866;2023-01-28T03:52:13;100565.03;;;0.40;95.54
58072;BME280;60383;46.626;18.866;2023-01-28T03:54:39;100560.94;;;0.32;95.21
58072;BME280;60383;46.626;18.866;2023-01-28T03:57:05;100554.59;;;0.50;94.79
58072;BME280;60383;46.626;18.866;2023-01-28T03:59:32;100564.69;;;0.76;93.10
58072;BME280;60383;46.626;18.866;2023-01-28T04:01:57;100565.31;;;0.82;91.82
58072;BME280;60383;46.626;18.866;2023-01-28T04:04:23;100571.81;;;0.77;92.79
58072;BME280;60383;46.626;18.866;2023-01-28T04:06:55;100564.44;;;0.81;92.89
58072;BME280;60383;46.626;18.866;2023-01-28T04:09:21;100563.19;;;0.87;92.07
58072;BME280;60383;46.626;18.866;2023-01-28T04:11:47;100562.31;;;0.56;93.61
58072;BME280;60383;46.626;18.866;2023-01-28T04:14:13;100565.72;;;0.43;93.75
58072;BME280;60383;46.626;18.866;2023-01-28T04:16:40;100557.84;;;0.71;92.59
58072;BME280;60383;46.626;18.866;2023-01-28T04:19:06;100557.53;;;0.45;94.02
58072;BME280;60383;46.626;18.866;2023-01-28T04:21:31;100558.34;;;0.31;95.14
58072;BME280;60383;46.626;18.866;2023-01-28T04:23:57;100571.56;;;0.36;95.01
58072;BME280;60383;46.626;18.866;2023-01-28T04:26:22;100570.88;;;0.32;94.93
58072;BME280;60383;46.626;18.866;2023-01-28T04:28:48;100574.94;;;0.39;94.27
58072;BME280;60383;46.626;18.866;2023-01-28T04:31:13;100578.25;;;0.44;94.98
58072;BME280;60383;46.626;18.866;2023-01-28T04:33:38;100575.06;;;0.38;94.52
58072;BME280;60383;46.626;18.866;2023-01-28T04:36:04;100580.09;;;0.44;94.24
58072;BME280;60383;46.626;18.866;2023-01-28T04:38:29;100583.78;;;0.41;94.96
58072;BME280;60383;46.626;18.866;2023-01-28T04:40:55;100591.56;;;0.47;94.63
58072;BME280;60383;46.626;18.866;2023-01-28T04:43:20;100581.81;;;0.61;93.29
58072;BME280;60383;46.626;18.866;2023-01-28T04:45:46;100585.81;;;0.54;93.73
58072;BME280;60383;46.626;18.866;2023-01-28T04:48:13;100595.34;;;0.59;93.54
58072;BME280;60383;46.626;18.866;2023-01-28T04:50:39;100588.16;;;0.44;94.38
58072;BME280;60383;46.626;18.866;2023-01-28T04:53:05;100585.25;;;0.63;94.33
58072;BME280;60383;46.626;18.866;2023-01-28T04:55:30;100584.44;;;0.46;94.24
58072;BME280;60383;46.626;18.866;2023-01-28T04:57:55;100591.72;;;0.44;93.75
58072;BME280;60383;46.626;18.866;2023-01-28T05:00:21;100588.31;;;0.57;94.24
58072;BME280;60383;46.626;18.866;2023-01-28T05:02:47;100588.84;;;0.94;91.45
58072;BME280;60383;46.626;18.866;2023-01-28T05:05:13;100587.81;;;0.50;93.03
58072;BME280;60383;46.626;18.866;2023-01-28T05:07:38;100592.88;;;0.40;93.87
58072;BME280;60383;46.626;18.866;2023-01-28T05:10:04;100589.09;;;0.59;93.75
58072;BME280;60383;46.626;18.866;2023-01-28T05:12:30;100594.25;;;0.31;94.42
58072;BME280;60383;46.626;18.866;2023-01-28T05:14:57;100594.97;;;0.66;93.25
58072;BME280;60383;46.626;18.866;2023-01-28T05:17:25;100601.38;;;0.32;93.79
58072;BME280;60383;46.626;18.866;2023-01-28T05:19:50;100599.81;;;0.28;94.92
58072;BME280;60383;46.626;18.866;2023-01-28T05:22:16;100596.06;;;0.47;94.30
58072;BME280;60383;46.626;18.866;2023-01-28T05:24:41;100604.50;;;0.41;94.78
58072;BME280;60383;46.626;18.866;2023-01-28T05:27:07;100595.22;;;0.30;95.61
58072;BME280;60383;46.626;18.866;2023-01-28T05:29:32;100599.63;;;0.63;93.70
58072;BME280;60383;46.626;18.866;2023-01-28T05:31:58;100603.31;;;0.30;94.13
58072;BME280;60383;46.626;18.866;2023-01-28T05:34:23;100602.03;;;0.52;93.48
58072;BME280;60383;46.626;18.866;2023-01-28T05:36:49;100599.63;;;0.31;94.16
58072;BME280;60383;46.626;18.866;2023-01-28T05:39:14;100607.19;;;0.41;94.09
58072;BME280;60383;46.626;18.866;2023-01-28T05:41:39;100609.38;;;0.50;93.77
58072;BME280;60383;46.626;18.866;2023-01-28T05:44:05;100610.56;;;0.60;92.84
58072;BME280;60383;46.626;18.866;2023-01-28T05:46:30;100617.25;;;0.53;93.30
58072;BME280;60383;46.626;18.866;2023-01-28T05:48:56;100616.78;;;0.30;93.50
58072;BME280;60383;46.626;18.866;2023-01-28T05:51:21;100613.53;;;0.56;93.28
58072;BME280;60383;46.626;18.866;2023-01-28T05:53:47;100621.47;;;0.43;93.72
58072;BME280;60383;46.626;18.866;2023-01-28T05:56:12;100625.69;;;0.63;92.35
58072;BME280;60383;46.626;18.866;2023-01-28T05:58:37;100629.19;;;0.49;92.95
58072;BME280;60383;46.626;18.866;2023-01-28T06:01:03;100624.22;;;0.41;92.88
58072;BME280;60383;46.626;18.866;2023-01-28T06:03:28;100630.50;;;0.26;93.79
58072;BME280;60383;46.626;18.866;2023-01-28T06:05:54;100636.47;;;0.15;94.08
58072;BME280;60383;46.626;18.866;2023-01-28T06:08:19;100639.00;;;0.18;94.47
58072;BME280;60383;46.626;18.866;2023-01-28T06:10:45;100639.28;;;0.45;93.02
58072;BME280;60383;46.626;18.866;2023-01-28T06:13:11;100640.31;;;0.59;92.38
58072;BME280;60383;46.626;18.866;2023-01-28T06:15:36;100637.88;;;0.38;92.51
58072;BME280;60383;46.626;18.866;2023-01-28T06:18:01;100646.41;;;0.30;93.25
58072;BME280;60383;46.626;18.866;2023-01-28T06:20:27;100649.97;;;0.47;92.64
58072;BME280;60383;46.626;18.866;2023-01-28T06:22:52;100650.41;;;0.55;91.91
58072;BME280;60383;46.626;18.866;2023-01-28T06:25:18;100647.28;;;0.31;92.69
58072;BME280;60383;46.626;18.866;2023-01-28T06:27:43;100649.59;;;0.21;94.18
58072;BME280;60383;46.626;18.866;2023-01-28T06:30:09;100650.13;;;0.28;93.66
58072;BME280;60383;46.626;18.866;2023-01-28T06:32:35;100649.59;;;0.21;93.76
58072;BME280;60383;46.626;18.866;2023-01-28T06:35:00;100659.25;;;0.25;93.11
58072;BME280;60383;46.626;18.866;2023-01-28T06:37:26;100665.69;;;0.23;93.40
58072;BME280;60383;46.626;18.866;2023-01-28T06:39:52;100674.91;;;0.35;93.77
58072;BME280;60383;46.626;18.866;2023-01-28T06:42:17;100672.66;;;0.43;92.83
58072;BME280;60383;46.626;18.866;2023-01-28T06:44:43;100673.88;;;0.37;92.76
58072;BME280;60383;46.626;18.866;2023-01-28T06:47:08;100686.28;;;0.40;93.16
58072;BME280;60383;46.626;18.866;2023-01-28T06:49:36;100676.22;;;0.43;93.39
58072;BME280;60383;46.626;18.866;2023-01-28T06:52:01;100684.41;;;0.58;92.38
58072;BME280;60383;46.626;18.866;2023-01-28T06:54:26;100681.19;;;0.51;93.03
58072;BME280;60383;46.626;18.866;2023-01-28T06:56:52;100683.19;;;0.47;92.45
58072;BME280;60383;46.626;18.866;2023-01-28T06:59:17;100683.09;;;0.49;92.33
58072;BME280;60383;46.626;18.866;2023-01-28T07:01:43;100684.84;;;0.66;91.89
58072;BME280;60383;46.626;18.866;2023-01-28T07:04:08;100681.25;;;0.50;91.52
58072;BME280;60383;46.626;18.866;2023-01-28T07:06:34;100687.28;;;0.55;92.44
58072;BME280;60383;46.626;18.866;2023-01-28T07:08:59;100684.66;;;0.53;91.47
58072;BME280;60383;46.626;18.866;2023-01-28T07:11:24;100696.38;;;0.52;91.90
58072;BME280;60383;46.626;18.866;2023-01-28T07:13:50;100692.56;;;0.56;91.39
58072;BME280;60383;46.626;18.866;2023-01-28T07:16:16;100693.84;;;0.81;91.23
58072;BME280;60383;46.626;18.866;2023-01-28T07:18:41;100699.41;;;0.62;91.90
58072;BME280;60383;46.626;18.866;2023-01-28T07:21:07;100698.56;;;0.45;92.29
58072;BME280;60383;46.626;18.866;2023-01-28T07:23:32;100690.56;;;0.60;92.71
58072;BME280;60383;46.626;18.866;2023-01-28T07:26:01;100691.53;;;0.59;92.05
58072;BME280;60383;46.626;18.866;2023-01-28T07:28:27;100704.31;;;0.39;92.44
58072;BME280;60383;46.626;18.866;2023-01-28T07:30:53;100701.88;;;0.67;91.69
58072;BME280;60383;46.626;18.866;2023-01-28T07:33:18;100698.22;;;0.52;91.87
58072;BME280;60383;46.626;18.866;2023-01-28T07:35:44;100709.94;;;0.67;91.88
58072;BME280;60383;46.626;18.866;2023-01-28T07:38:10;100705.78;;;0.61;92.17
58072;BME280;60383;46.626;18.866;2023-01-28T07:40:36;100716.56;;;0.77;90.06
58072;BME280;60383;46.626;18.866;2023-01-28T07:43:02;100718.84;;;0.69;90.68
58072;BME280;60383;46.626;18.866;2023-01-28T07:45:27;100717.44;;;0.77;91.04
58072;BME280;60383;46.626;18.866;2023-01-28T07:47:59;100718.47;;;0.91;89.94
58072;BME280;60383;46.626;18.866;2023-01-28T07:50:26;100726.22;;;0.49;92.04
58072;BME280;60383;46.626;18.866;2023-01-28T07:52:54;100724.31;;;0.83;90.47
58072;BME280;60383;46.626;18.866;2023-01-28T07:55:19;100722.72;;;0.79;90.85
58072;BME280;60383;46.626;18.866;2023-01-28T07:57:56;100723.38;;;0.68;91.35
58072;BME280;60383;46.626;18.866;2023-01-28T08:00:24;100719.25;;;0.93;90.38
58072;BME280;60383;46.626;18.866;2023-01-28T08:02:55;100723.38;;;0.84;91.15
58072;BME280;60383;46.626;18.866;2023-01-28T08:05:20;100726.38;;;1.10;90.15
58072;BME280;60383;46.626;18.866;2023-01-28T08:07:47;100723.88;;;0.91;88.99
58072;BME280;60383;46.626;18.866;2023-01-28T08:10:14;100727.25;;;0.78;89.11
58072;BME280;60383;46.626;18.866;2023-01-28T08:12:40;100726.13;;;0.67;89.61
58072;BME280;60383;46.626;18.866;2023-01-28T08:15:06;100736.06;;;0.82;89.89
58072;BME280;60383;46.626;18.866;2023-01-28T08:17:32;100735.34;;;0.62;90.80
58072;BME280;60383;46.626;18.866;2023-01-28T08:19:58;100734.47;;;1.10;88.88
58072;BME280;60383;46.626;18.866;2023-01-28T08:22:26;100736.50;;;0.90;89.41
58072;BME280;60383;46.626;18.866;2023-01-28T08:24:52;100736.41;;;0.76;89.67
58072;BME280;60383;46.626;18.866;2023-01-28T08:27:17;100728.31;;;0.76;90.76
58072;BME280;60383;46.626;18.866;2023-01-28T08:29:43;100735.25;;;0.80;90.84
58072;BME280;60383;46.626;18.866;2023-01-28T08:32:09;100738.84;;;0.97;90.95
58072;BME280;60383;46.626;18.866;2023-01-28T08:34:35;100740.69;;;0.96;90.40
58072;BME280;60383;46.626;18.866;2023-01-28T08:37:00;100745.00;;;1.15;89.68
58072;BME280;60383;46.626;18.866;2023-01-28T08:39:25;100739.41;;;1.18;88.97
58072;BME280;60383;46.626;18.866;2023-01-28T08:41:51;100745.50;;;1.21;88.10
58072;BME280;60383;46.626;18.866;2023-01-28T08:44:16;100746.63;;;1.33;88.71
58072;BME280;60383;46.626;18.866;2023-01-28T08:46:42;100747.72;;;1.45;87.57
58072;BME280;60383;46.626;18.866;2023-01-28T08:49:07;100744.19;;;1.28;87.83
58072;BME280;60383;46.626;18.866;2023-01-28T08:51:33;100752.16;;;1.46;87.60
58072;BME280;60383;46.626;18.866;2023-01-28T08:53:58;100755.06;;;1.27;87.48
58072;BME280;60383;46.626;18.866;2023-01-28T08:56:24;100754.34;;;1.39;88.13
58072;BME280;60383;46.626;18.866;2023-01-28T08:58:50;100753.75;;;1.34;88.03
58072;BME280;60383;46.626;18.866;2023-01-28T09:01:15;100754.91;;;1.61;86.77
58072;BME280;60383;46.626;18.866;2023-01-28T09:03:41;100753.19;;;1.59;87.23
58072;BME280;60383;46.626;18.866;2023-01-28T09:06:06;100758.09;;;1.67;86.11
58072;BME280;60383;46.626;18.866;2023-01-28T09:08:32;100762.13;;;1.60;86.94
58072;BME280;60383;46.626;18.866;2023-01-28T09:10:58;100763.03;;;1.61;86.45
58072;BME280;60383;46.626;18.866;2023-01-28T09:13:24;100763.25;;;1.72;86.37
58072;BME280;60383;46.626;18.866;2023-01-28T09:15:50;100767.09;;;1.68;86.41
58072;BME280;60383;46.626;18.866;2023-01-28T09:18:16;100776.38;;;1.48;86.65
58072;BME280;60383;46.626;18.866;2023-01-28T09:20:42;100777.06;;;1.51;87.75
58072;BME280;60383;46.626;18.866;2023-01-28T09:23:08;100775.22;;;1.82;85.79
58072;BME280;60383;46.626;18.866;2023-01-28T09:25:34;100780.44;;;1.55;86.39
58072;BME280;60383;46.626;18.866;2023-01-28T09:28:03;100785.66;;;1.58;87.17
58072;BME280;60383;46.626;18.866;2023-01-28T09:30:28;100786.63;;;1.57;87.52
58072;BME280;60383;46.626;18.866;2023-01-28T09:32:55;100785.25;;;1.80;86.25
58072;BME280;60383;46.626;18.866;2023-01-28T09:35:22;100786.06;;;1.97;85.32
58072;BME280;60383;46.626;18.866;2023-01-28T09:37:48;100790.06;;;2.05;85.20
58072;BME280;60383;46.626;18.866;2023-01-28T09:45:58;100785.81;;;2.30;83.59
58072;BME280;60383;46.626;18.866;2023-01-28T09:48:45;100773.75;;;2.07;85.29
58072;BME280;60383;46.626;18.866;2023-01-28T09:51:32;100782.41;;;2.12;85.07
58072;BME280;60383;46.626;18.866;2023-01-28T09:54:03;100783.59;;;2.22;85.06
58072;BME280;60383;46.626;18.866;2023-01-28T09:56:40;100779.63;;;2.28;84.27
58072;BME280;60383;46.626;18.866;2023-01-28T09:59:19;100779.72;;;2.12;85.40
58072;BME280;60383;46.626;18.866;2023-01-28T10:01:52;100778.88;;;2.26;84.82
58072;BME280;60383;46.626;18.866;2023-01-28T10:07:10;100781.38;;;2.44;85.23
58072;BME280;60383;46.626;18.866;2023-01-28T10:09:49;100789.66;;;2.40;83.48
58072;BME280;60383;46.626;18.866;2023-01-28T10:18:11;100771.88;;;2.94;81.85
58072;BME280;60383;46.626;18.866;2023-01-28T10:20:48;100772.84;;;2.93;81.86
58072;BME280;60383;46.626;18.866;2023-01-28T10:25:47;100774.47;;;2.96;81.55
58072;BME280;60383;46.626;18.866;2023-01-28T10:28:21;100780.16;;;3.06;81.78
58072;BME280;60383;46.626;18.866;2023-01-28T10:30:48;100772.53;;;3.12;80.96
58072;BME280;60383;46.626;18.866;2023-01-28T10:33:27;100766.78;;;3.17;80.57
58072;BME280;60383;46.626;18.866;2023-01-28T10:35:55;100770.75;;;3.26;80.80
58072;BME280;60383;46.626;18.866;2023-01-28T10:38:24;100774.03;;;3.44;80.36
58072;BME280;60383;46.626;18.866;2023-01-28T10:40:50;100774.13;;;3.29;79.95
58072;BME280;60383;46.626;18.866;2023-01-28T10:43:19;100782.69;;;3.63;80.09
58072;BME280;60383;46.626;18.866;2023-01-28T10:48:29;100780.25;;;3.99;77.64
58072;BME280;60383;46.626;18.866;2023-01-28T10:50:59;100778.63;;;3.96;76.80
58072;BME280;60383;46.626;18.866;2023-01-28T10:53:34;100777.38;;;3.75;78.25
58072;BME280;60383;46.626;18.866;2023-01-28T10:56:02;100780.53;;;3.81;78.74
58072;BME280;60383;46.626;18.866;2023-01-28T10:58:30;100783.25;;;3.81;77.71
58072;BME280;60383;46.626;18.866;2023-01-28T11:01:05;100780.59;;;3.54;79.58
58072;BME280;60383;46.626;18.866;2023-01-28T11:03:32;100777.94;;;3.80;80.10
58072;BME280;60383;46.626;18.866;2023-01-28T11:06:00;100781.66;;;3.92;77.34
58072;BME280;60383;46.626;18.866;2023-01-28T11:08:28;100778.66;;;3.69;78.61
58072;BME280;60383;46.626;18.866;2023-01-28T11:10:55;100782.97;;;3.59;79.44
58072;BME280;60383;46.626;18.866;2023-01-28T11:13:28;100773.66;;;3.63;79.40
58072;BME280;60383;46.626;18.866;2023-01-28T11:18:24;100779.97;;;3.36;79.70
58072;BME280;60383;46.626;18.866;2023-01-28T11:20:53;100776.44;;;2.79;82.40
58072;BME280;60383;46.626;18.866;2023-01-28T11:23:25;100774.06;;;3.02;83.58
58072;BME280;60383;46.626;18.866;2023-01-28T11:26:05;100772.41;;;3.14;82.99
58072;BME280;60383;46.626;18.866;2023-01-28T11:28:32;100764.75;;;3.20;82.06
58072;BME280;60383;46.626;18.866;2023-01-28T11:31:00;100766.88;;;2.88;81.69
58072;BME280;60383;46.626;18.866;2023-01-28T11:33:40;100769.50;;;2.75;82.37
58072;BME280;60383;46.626;18.866;2023-01-28T11:36:14;100775.47;;;2.80;84.00
58072;BME280;60383;46.626;18.866;2023-01-28T11:39:16;100772.19;;;2.90;83.31
58072;BME280;60383;46.626;18.866;2023-01-28T11:41:45;100773.31;;;3.00;82.89
58072;BME280;60383;46.626;18.866;2023-01-28T11:44:22;100768.69;;;2.87;82.47
58072;BME280;60383;46.626;18.866;2023-01-28T11:49:30;100758.66;;;2.90;82.08
58072;BME280;60383;46.626;18.866;2023-01-28T12:00:50;100763.69;;;2.67;82.32
58072;BME280;60383;46.626;18.866;2023-01-28T12:22:06;100743.44;;;3.56;77.90
58072;BME280;60383;46.626;18.866;2023-01-28T12:33:10;100746.16;;;3.56;77.74
58072;BME280;60383;46.626;18.866;2023-01-28T12:41:37;100751.63;;;3.42;78.71
58072;BME280;60383;46.626;18.866;2023-01-28T12:44:10;100759.34;;;3.48;76.95
58072;BME280;60383;46.626;18.866;2023-01-28T12:49:39;100766.84;;;3.30;77.79
58072;BME280;60383;46.626;18.866;2023-01-28T12:52:28;100760.56;;;2.87;79.04
58072;BME280;60383;46.626;18.866;2023-01-28T12:55:02;100764.50;;;2.96;79.73
58072;BME280;60383;46.626;18.866;2023-01-28T12:57:31;100758.53;;;2.91;80.15
58072;BME280;60383;46.626;18.866;2023-01-28T13:03:05;100767.72;;;2.88;80.53
58072;BME280;60383;46.626;18.866;2023-01-28T13:05:37;100769.38;;;2.91;81.11
58072;BME280;60383;46.626;18.866;2023-01-28T13:08:24;100780.31;;;2.75;81.90
58072;BME280;60383;46.626;18.866;2023-01-28T13:10:51;100782.63;;;2.81;81.76
58072;BME280;60383;46.626;18.866;2023-01-28T13:13:34;100777.59;;;2.75;82.05
58072;BME280;60383;46.626;18.866;2023-01-28T13:16:01;100773.72;;;2.79;82.32
58072;BME280;60383;46.626;18.866;2023-01-28T13:18:43;100787.06;;;2.82;81.29
58072;BME280;60383;46.626;18.866;2023-01-28T13:24:16;100786.09;;;3.25;78.99
58072;BME280;60383;46.626;18.866;2023-01-28T13:26:47;100783.69;;;3.20;79.58
58072;BME280;60383;46.626;18.866;2023-01-28T13:31:40;100789.84;;;2.95;81.93
58072;BME280;60383;46.626;18.866;2023-01-28T13:34:07;100790.06;;;2.78;82.37
58072;BME280;60383;46.626;18.866;2023-01-28T13:36:44;100797.50;;;2.74;82.77
58072;BME280;60383;46.626;18.866;2023-01-28T13:39:18;100798.06;;;2.94;81.98
58072;BME280;60383;46.626;18.866;2023-01-28T13:41:49;100805.59;;;3.03;81.62
58072;BME280;60383;46.626;18.866;2023-01-28T13:46:57;100807.41;;;3.02;81.33
58072;BME280;60383;46.626;18.866;2023-01-28T13:49:29;100808.47;;;3.00;81.45
58072;BME280;60383;46.626;18.866;2023-01-28T13:54:50;100817.09;;;2.92;81.98
58072;BME280;60383;46.626;18.866;2023-01-28T14:03:35;100820.22;;;2.71;82.99
58072;BME280;60383;46.626;18.866;2023-01-28T14:08:56;100818.97;;;2.63;83.12
58072;BME280;60383;46.626;18.866;2023-01-28T14:16:56;100829.69;;;2.64;82.71
58072;BME280;60383;46.626;18.866;2023-01-28T14:19:28;100835.19;;;2.48;83.20
58072;BME280;60383;46.626;18.866;2023-01-28T14:21:55;100828.44;;;2.55;83.33
58072;BME280;60383;46.626;18.866;2023-01-28T14:24:21;100826.84;;;2.51;83.51
58072;BME280;60383;46.626;18.866;2023-01-28T14:32:15;100844.44;;;2.44;83.91
58072;BME280;60383;46.626;18.866;2023-01-28T14:34:42;100844.38;;;2.60;84.03
58072;BME280;60383;46.626;18.866;2023-01-28T14:37:12;100837.59;;;2.53;83.23
58072;BME280;60383;46.626;18.866;2023-01-28T14:39:43;100830.63;;;2.49;83.76
58072;BME280;60383;46.626;18.866;2023-01-28T14:42:39;100835.34;;;2.31;84.44
58072;BME280;60383;46.626;18.866;2023-01-28T14:50:59;100837.97;;;2.32;84.68
58072;BME280;60383;46.626;18.866;2023-01-28T15:02:01;100847.38;;;2.11;86.07
58072;BME280;60383;46.626;18.866;2023-01-28T15:04:31;100851.00;;;2.40;84.59
58072;BME280;60383;46.626;18.866;2023-01-28T15:07:00;100856.50;;;2.38;85.21
58072;BME280;60383;46.626;18.866;2023-01-28T15:09:26;100854.09;;;2.34;85.24
58072;BME280;60383;46.626;18.866;2023-01-28T15:11:55;100856.75;;;2.19;86.00
58072;BME280;60383;46.626;18.866;2023-01-28T15:14:28;100860.84;;;2.41;85.25
58072;BME280;60383;46.626;18.866;2023-01-28T15:16:54;100872.03;;;2.35;85.66
58072;BME280;60383;46.626;18.866;2023-01-28T15:19:32;100872.63;;;2.40;84.71
58072;BME280;60383;46.626;18.866;2023-01-28T15:22:02;100874.00;;;2.47;84.87
58072;BME280;60383;46.626;18.866;2023-01-28T15:24:30;100875.03;;;2.30;85.28
58072;BME280;60383;46.626;18.866;2023-01-28T15:26:56;100882.19;;;2.31;85.92